Norton, KS

10:37 PM CDT on June 02, 2015 (GMT -0500)
Prairie View, KS | | Change Station
CLOSE
Current Station
Personal Weather Station
Location: Prairie View, KS
Elevation: 2165 ft
Nearby Weather Stations

Elev 2165 ft 39.82 °N, 99.57 °W | Updated 5 minutes ago

Clear
Clear
74.7 °F
Feels Like 76 °F
N
8.9
Wind Variable Wind from ESE

Today
High -- | Low -- °F
--% Chance of Precip.
Yesterday
High -- | Low -- °F
Precip. -- in
6:13 AM 9:02 PM
Full, 100% visible
Pressure 29.71 in
Visibility 10.0 miles
Clouds Clear
Heat Index 76 °F
Dew Point 66 °F
Humidity 75%
Rainfall 0.00 in
Snow Depth Not available.
UV 0 out of 12
Pollen 8.70 out of 12
Air Quality Not available.
Flu Activity No Activity
METAR KHLC 030253Z AUTO 14008KT 10SM CLR 25/19 A2977 RMK AO2 SLP060 T02500189 55002

More Conditions Fewer Conditions

Pressure 29.71 in
Visibility 10.0 miles
Clouds Clear
Heat Index 76 °F
Dew Point 66 °F
Humidity 75%
Rainfall 0.00 in
Snow Depth Not available.
UV 0 out of 12
Pollen 8.70 out of 12
Air Quality Not available.
Flu Activity No Activity
METAR KHLC 030253Z AUTO 14008KT 10SM CLR 25/19 A2977 RMK AO2 SLP060 T02500189 55002

More Conditions Fewer Conditions

10-Day Weather Forecast

×

Almanac

Astronomy

Jun. 02, 2015 Rise Set
Actual Time
Civil Twilight
Nautical Twilight
Astronomical Twilight
Moon
Length of Visible Light
Length of Day
Tomorrow will be .
, % of the Moon is Illuminated

Today's Extremes

State Highs State Lows

Community

WunderPhotos

Upload Photos

1,826,138 photos uploaded!

WunderBlogs® & News

Nearby

Air Quality

  Air Quality AQ Index Pollutant
Not available.

Snow Depth

Station Depth Elevation

Earthquake Activity

City Distance Mag. Time & Date
Minimum magnitude displayed is 2.5.

Coastal Water Temperatures

Place Temperature

Stations

Nearby Weather Stations

Station Location Temp. Windchill Dew Point Humidity Wind Precip. Elev Updated Type